This is the latest recevied weather packets stored in our database for station/object K7TUS-6. If no packets are shown the sender has not sent any weather packets the latest 1 day(s).
| Time | Temp. | Humidity | Pressure | Rain* | Wind** | Luminosity | Snow |
|---|---|---|---|---|---|---|---|
| 1777991103 | 2.78° C | 46% | 976.7 hPa | - | 12.52 m/s, 200° | - | - |
| 1777990802 | 2.78° C | 46% | 976.7 hPa | - | 12.52 m/s, 200° | - | - |
| 1777990508 | 2.78° C | 46% | 976.7 hPa | - | 12.52 m/s, 200° | - | - |
| 1777990224 | 3.33° C | 47% | 977.1 hPa | - | 4.02 m/s, 212° | - | - |
| 1777989904 | 3.33° C | 49% | 975.9 hPa | - | 4.47 m/s, 214° | - | - |
| 1777989303 | 3.33° C | 46% | 976.7 hPa | - | 2.24 m/s, 332° | - | - |
| 1777989008 | 3.33° C | 46% | 976.7 hPa | - | 2.24 m/s, 332° | - | - |
| 1777988708 | 3.33° C | 46% | 976.1 hPa | - | 5.81 m/s, 332° | - | - |
| 1777988407 | 3.89° C | 43% | 976.1 hPa | - | 6.26 m/s, 348° | - | - |
| 1777988106 | 2.78° C | 44% | 975.8 hPa | - | 5.36 m/s, 256° | - | - |
| 1777987806 | 3.89° C | 43% | 975.1 hPa | - | 5.36 m/s, 345° | - | - |
| 1777987505 | 3.89° C | 44% | 976.2 hPa | - | 8.05 m/s, 337° | - | - |
| 1777986904 | 3.33° C | 44% | 975.5 hPa | - | 4.92 m/s, 335° | - | - |
| 1777986604 | 3.89° C | 43% | 975.6 hPa | - | 4.92 m/s, 326° | - | - |
| 1777986303 | 3.89° C | 45% | 975.1 hPa | - | 5.36 m/s, 293° | - | - |
| 1777986002 | 3.89° C | 45% | 975.3 hPa | - | 3.58 m/s, 310° | - | - |
| 1777985702 | 3.89° C | 47% | 976.4 hPa | - | 4.47 m/s, 315° | - | - |
| 1777985407 | 3.89° C | 44% | 975.2 hPa | - | 6.26 m/s, 344° | - | - |
| 1777985106 | 3.89° C | 46% | 975.4 hPa | - | 4.92 m/s, 346° | - | - |
| 1777984806 | 3.89° C | 45% | 975.5 hPa | - | 6.26 m/s, 336° | - | - |
| 1777984505 | 4.44° C | 43% | 975.5 hPa | - | 7.15 m/s, 345° | - | - |
| 1777984205 | 3.89° C | 47% | 975.3 hPa | - | 4.47 m/s, 277° | - | - |
| 1777983904 | 3.89° C | 46% | 975 hPa | - | 4.02 m/s, 351° | - | - |
| 1777983604 | 4.44° C | 45% | 975.3 hPa | - | 5.81 m/s, 332° | - | - |
| 1777983303 | 4.44° C | 45% | 975.6 hPa | - | 5.36 m/s, 319° | - | - |
* Rain since midnight (hover to see other rain measurements)
** Current wind speed in m/s (hover to see current wind gust speed)